sensor_id;sensor_type;location;lat;lon;timestamp;noise_LAeq;noise_LA_min;noise_LA_max;noise_LA01;noise_LA95
43168;Laerm;28773;48.804;9.024;2023-12-28T00:00:34;32.00;29.55;42.72;;
43168;Laerm;28773;48.804;9.024;2023-12-28T00:03:00;31.60;29.69;39.53;;
43168;Laerm;28773;48.804;9.024;2023-12-28T00:05:25;31.18;29.61;37.29;;
43168;Laerm;28773;48.804;9.024;2023-12-28T00:07:50;31.76;29.27;40.08;;
43168;Laerm;28773;48.804;9.024;2023-12-28T00:10:21;30.94;29.46;32.35;;
43168;Laerm;28773;48.804;9.024;2023-12-28T00:12:47;31.42;29.74;38.86;;
43168;Laerm;28773;48.804;9.024;2023-12-28T00:15:12;31.66;29.61;42.91;;
43168;Laerm;28773;48.804;9.024;2023-12-28T00:17:37;30.91;29.72;32.13;;
43168;Laerm;28773;48.804;9.024;2023-12-28T00:20:02;31.80;29.69;39.64;;
43168;Laerm;28773;48.804;9.024;2023-12-28T00:22:27;31.48;29.70;39.97;;
43168;Laerm;28773;48.804;9.024;2023-12-28T00:24:53;31.95;29.72;41.71;;
43168;Laerm;28773;48.804;9.024;2023-12-28T00:27:18;30.88;29.64;32.18;;
43168;Laerm;28773;48.804;9.024;2023-12-28T00:29:43;30.95;29.68;32.10;;
43168;Laerm;28773;48.804;9.024;2023-12-28T00:32:08;31.14;29.60;36.70;;
43168;Laerm;28773;48.804;9.024;2023-12-28T00:34:34;31.02;29.63;32.38;;
43168;Laerm;28773;48.804;9.024;2023-12-28T00:36:59;31.09;29.78;32.29;;
43168;Laerm;28773;48.804;9.024;2023-12-28T00:39:24;31.04;29.66;32.52;;
43168;Laerm;28773;48.804;9.024;2023-12-28T00:41:49;31.54;29.83;39.48;;
43168;Laerm;28773;48.804;9.024;2023-12-28T00:44:15;30.95;29.50;32.40;;
43168;Laerm;28773;48.804;9.024;2023-12-28T00:46:40;31.40;29.62;40.54;;
43168;Laerm;28773;48.804;9.024;2023-12-28T00:49:05;31.16;29.47;37.20;;
43168;Laerm;28773;48.804;9.024;2023-12-28T00:51:30;31.20;29.70;37.30;;
43168;Laerm;28773;48.804;9.024;2023-12-28T00:53:55;31.30;29.71;39.48;;
43168;Laerm;28773;48.804;9.024;2023-12-28T00:56:21;30.98;29.67;32.47;;
43168;Laerm;28773;48.804;9.024;2023-12-28T00:58:46;31.31;29.63;37.74;;
43168;Laerm;28773;48.804;9.024;2023-12-28T01:01:11;31.26;29.64;39.12;;
43168;Laerm;28773;48.804;9.024;2023-12-28T01:03:37;31.00;29.45;32.13;;
43168;Laerm;28773;48.804;9.024;2023-12-28T01:06:02;31.00;29.47;32.34;;
43168;Laerm;28773;48.804;9.024;2023-12-28T01:08:27;31.43;29.91;38.48;;
43168;Laerm;28773;48.804;9.024;2023-12-28T01:10:52;31.52;30.10;37.78;;
43168;Laerm;28773;48.804;9.024;2023-12-28T01:13:17;31.57;29.95;38.46;;
43168;Laerm;28773;48.804;9.024;2023-12-28T01:15:43;32.02;30.13;40.95;;
43168;Laerm;28773;48.804;9.024;2023-12-28T01:18:08;31.46;30.23;32.65;;
43168;Laerm;28773;48.804;9.024;2023-12-28T01:20:33;31.86;30.16;42.22;;
43168;Laerm;28773;48.804;9.024;2023-12-28T01:22:59;31.40;30.23;32.77;;
43168;Laerm;28773;48.804;9.024;2023-12-28T01:25:24;31.62;30.24;36.40;;
43168;Laerm;28773;48.804;9.024;2023-12-28T01:27:50;31.56;30.21;32.80;;
43168;Laerm;28773;48.804;9.024;2023-12-28T01:30:15;31.57;30.28;32.96;;
43168;Laerm;28773;48.804;9.024;2023-12-28T01:32:40;31.41;30.11;32.56;;
43168;Laerm;28773;48.804;9.024;2023-12-28T01:35:05;31.48;29.99;37.55;;
43168;Laerm;28773;48.804;9.024;2023-12-28T01:37:30;31.51;29.89;41.01;;
43168;Laerm;28773;48.804;9.024;2023-12-28T01:39:58;30.98;29.72;32.39;;
43168;Laerm;28773;48.804;9.024;2023-12-28T01:42:23;30.96;29.57;32.43;;
43168;Laerm;28773;48.804;9.024;2023-12-28T01:44:48;31.61;29.72;41.50;;
43168;Laerm;28773;48.804;9.024;2023-12-28T01:47:13;30.89;29.56;32.13;;
43168;Laerm;28773;48.804;9.024;2023-12-28T01:49:39;30.87;29.56;32.15;;
43168;Laerm;28773;48.804;9.024;2023-12-28T01:52:04;31.09;29.60;35.74;;
43168;Laerm;28773;48.804;9.024;2023-12-28T01:54:31;30.91;29.62;32.24;;
43168;Laerm;28773;48.804;9.024;2023-12-28T01:56:57;30.85;29.63;32.01;;
43168;Laerm;28773;48.804;9.024;2023-12-28T01:59:22;30.82;29.61;32.21;;
43168;Laerm;28773;48.804;9.024;2023-12-28T02:01:47;30.95;29.49;37.10;;
43168;Laerm;28773;48.804;9.024;2023-12-28T02:04:13;30.75;29.53;31.99;;
43168;Laerm;28773;48.804;9.024;2023-12-28T02:06:39;31.26;29.54;42.42;;
43168;Laerm;28773;48.804;9.024;2023-12-28T02:09:04;30.81;29.23;35.56;;
43168;Laerm;28773;48.804;9.024;2023-12-28T02:11:29;30.70;29.56;31.98;;
43168;Laerm;28773;48.804;9.024;2023-12-28T02:13:54;30.71;29.36;31.97;;
43168;Laerm;28773;48.804;9.024;2023-12-28T02:16:28;30.73;29.48;31.90;;
43168;Laerm;28773;48.804;9.024;2023-12-28T02:18:56;30.71;29.41;31.96;;
43168;Laerm;28773;48.804;9.024;2023-12-28T02:21:21;30.71;29.45;31.76;;
43168;Laerm;28773;48.804;9.024;2023-12-28T02:23:48;30.72;29.41;31.88;;
43168;Laerm;28773;48.804;9.024;2023-12-28T02:26:13;31.37;29.43;40.48;;
43168;Laerm;28773;48.804;9.024;2023-12-28T02:28:39;31.16;29.54;40.93;;
43168;Laerm;28773;48.804;9.024;2023-12-28T02:31:04;31.10;29.48;37.48;;
43168;Laerm;28773;48.804;9.024;2023-12-28T02:33:34;30.92;29.51;36.85;;
43168;Laerm;28773;48.804;9.024;2023-12-28T02:36:07;31.04;29.56;39.51;;
43168;Laerm;28773;48.804;9.024;2023-12-28T02:38:35;30.95;29.53;37.87;;
43168;Laerm;28773;48.804;9.024;2023-12-28T02:41:01;30.99;29.42;37.96;;
43168;Laerm;28773;48.804;9.024;2023-12-28T02:43:28;30.72;29.48;31.84;;
43168;Laerm;28773;48.804;9.024;2023-12-28T02:45:53;30.69;29.42;31.87;;
43168;Laerm;28773;48.804;9.024;2023-12-28T02:48:18;30.67;29.51;36.34;;
43168;Laerm;28773;48.804;9.024;2023-12-28T02:50:44;30.66;29.26;32.29;;
43168;Laerm;28773;48.804;9.024;2023-12-28T02:53:09;31.16;29.34;39.20;;
43168;Laerm;28773;48.804;9.024;2023-12-28T02:55:34;30.94;29.18;38.52;;
43168;Laerm;28773;48.804;9.024;2023-12-28T02:57:59;30.82;29.26;37.41;;
43168;Laerm;28773;48.804;9.024;2023-12-28T03:00:25;30.84;29.26;36.77;;
43168;Laerm;28773;48.804;9.024;2023-12-28T03:02:50;31.08;29.12;38.90;;
43168;Laerm;28773;48.804;9.024;2023-12-28T03:05:15;30.92;29.35;36.76;;
43168;Laerm;28773;48.804;9.024;2023-12-28T03:07:41;31.02;29.31;35.69;;
43168;Laerm;28773;48.804;9.024;2023-12-28T03:10:07;30.70;29.48;32.00;;
43168;Laerm;28773;48.804;9.024;2023-12-28T03:12:32;30.93;29.48;39.18;;
43168;Laerm;28773;48.804;9.024;2023-12-28T03:14:58;30.65;29.16;32.12;;
43168;Laerm;28773;48.804;9.024;2023-12-28T03:17:23;30.83;29.42;37.24;;
43168;Laerm;28773;48.804;9.024;2023-12-28T03:19:48;30.66;29.42;32.56;;
43168;Laerm;28773;48.804;9.024;2023-12-28T03:22:13;31.12;29.21;40.91;;
43168;Laerm;28773;48.804;9.024;2023-12-28T03:24:39;30.96;29.23;38.52;;
43168;Laerm;28773;48.804;9.024;2023-12-28T03:27:04;30.65;29.32;31.82;;
43168;Laerm;28773;48.804;9.024;2023-12-28T03:29:29;30.63;29.02;31.73;;
43168;Laerm;28773;48.804;9.024;2023-12-28T03:31:55;31.74;29.44;42.00;;
43168;Laerm;28773;48.804;9.024;2023-12-28T03:34:20;30.64;29.25;31.78;;
43168;Laerm;28773;48.804;9.024;2023-12-28T03:36:45;30.63;29.42;32.13;;
43168;Laerm;28773;48.804;9.024;2023-12-28T03:39:10;30.62;29.43;35.79;;
43168;Laerm;28773;48.804;9.024;2023-12-28T03:41:36;31.08;29.34;37.93;;
43168;Laerm;28773;48.804;9.024;2023-12-28T03:44:01;31.70;29.49;42.94;;
43168;Laerm;28773;48.804;9.024;2023-12-28T03:46:26;30.59;29.32;31.76;;
43168;Laerm;28773;48.804;9.024;2023-12-28T03:48:52;31.00;29.12;40.48;;
43168;Laerm;28773;48.804;9.024;2023-12-28T03:51:17;30.88;29.39;38.72;;
43168;Laerm;28773;48.804;9.024;2023-12-28T03:53:42;30.94;29.10;39.18;;
43168;Laerm;28773;48.804;9.024;2023-12-28T03:56:07;30.68;29.31;36.35;;
43168;Laerm;28773;48.804;9.024;2023-12-28T03:58:33;30.81;28.77;37.49;;
43168;Laerm;28773;48.804;9.024;2023-12-28T04:00:58;31.39;29.00;44.01;;
43168;Laerm;28773;48.804;9.024;2023-12-28T04:03:23;30.57;29.24;31.92;;
43168;Laerm;28773;48.804;9.024;2023-12-28T04:05:48;30.80;29.31;38.26;;
43168;Laerm;28773;48.804;9.024;2023-12-28T04:08:14;31.05;29.30;40.94;;
43168;Laerm;28773;48.804;9.024;2023-12-28T04:10:41;31.05;29.33;40.98;;
43168;Laerm;28773;48.804;9.024;2023-12-28T04:13:06;30.55;29.22;32.10;;
43168;Laerm;28773;48.804;9.024;2023-12-28T04:15:32;30.55;29.34;31.74;;
43168;Laerm;28773;48.804;9.024;2023-12-28T04:17:57;30.54;29.17;33.54;;
43168;Laerm;28773;48.804;9.024;2023-12-28T04:20:22;31.16;29.20;42.43;;
43168;Laerm;28773;48.804;9.024;2023-12-28T04:22:48;30.80;29.37;38.75;;
43168;Laerm;28773;48.804;9.024;2023-12-28T04:25:13;30.90;29.27;39.89;;
43168;Laerm;28773;48.804;9.024;2023-12-28T04:27:38;30.93;29.37;40.15;;
43168;Laerm;28773;48.804;9.024;2023-12-28T04:30:04;31.21;29.19;40.02;;
43168;Laerm;28773;48.804;9.024;2023-12-28T04:32:30;31.33;29.30;42.93;;
43168;Laerm;28773;48.804;9.024;2023-12-28T04:34:55;31.60;29.23;41.79;;
43168;Laerm;28773;48.804;9.024;2023-12-28T04:37:21;31.11;29.26;39.02;;
43168;Laerm;28773;48.804;9.024;2023-12-28T04:39:46;30.75;29.28;37.53;;
43168;Laerm;28773;48.804;9.024;2023-12-28T04:42:11;30.95;29.21;37.90;;
43168;Laerm;28773;48.804;9.024;2023-12-28T04:44:37;31.74;29.28;42.83;;
43168;Laerm;28773;48.804;9.024;2023-12-28T04:47:03;31.85;29.24;44.21;;
43168;Laerm;28773;48.804;9.024;2023-12-28T04:49:28;31.26;29.24;40.41;;
43168;Laerm;28773;48.804;9.024;2023-12-28T04:51:53;30.72;29.37;35.62;;
43168;Laerm;28773;48.804;9.024;2023-12-28T04:54:18;31.38;29.22;39.86;;
43168;Laerm;28773;48.804;9.024;2023-12-28T04:56:44;32.38;29.22;41.65;;
43168;Laerm;28773;48.804;9.024;2023-12-28T04:59:10;31.84;29.28;43.18;;
43168;Laerm;28773;48.804;9.024;2023-12-28T05:01:40;31.36;29.21;39.56;;
43168;Laerm;28773;48.804;9.024;2023-12-28T05:04:05;31.36;29.21;38.62;;
43168;Laerm;28773;48.804;9.024;2023-12-28T05:06:30;31.10;29.28;38.63;;
43168;Laerm;28773;48.804;9.024;2023-12-28T05:08:55;32.56;29.33;41.49;;
43168;Laerm;28773;48.804;9.024;2023-12-28T05:11:20;31.52;29.28;40.83;;
43168;Laerm;28773;48.804;9.024;2023-12-28T05:13:46;30.95;29.32;40.30;;
43168;Laerm;28773;48.804;9.024;2023-12-28T05:16:11;31.59;29.37;39.44;;
43168;Laerm;28773;48.804;9.024;2023-12-28T05:18:36;31.41;29.40;38.00;;
43168;Laerm;28773;48.804;9.024;2023-12-28T05:21:01;31.26;29.26;39.37;;
43168;Laerm;28773;48.804;9.024;2023-12-28T05:23:26;32.04;29.43;43.33;;
43168;Laerm;28773;48.804;9.024;2023-12-28T05:25:51;31.34;29.11;40.84;;
43168;Laerm;28773;48.804;9.024;2023-12-28T05:28:16;31.80;29.32;41.57;;
43168;Laerm;28773;48.804;9.024;2023-12-28T05:30:42;32.25;29.38;41.33;;
43168;Laerm;28773;48.804;9.024;2023-12-28T05:33:07;31.89;29.28;40.51;;
43168;Laerm;28773;48.804;9.024;2023-12-28T05:35:32;32.34;29.57;41.97;;
43168;Laerm;28773;48.804;9.024;2023-12-28T05:37:57;31.55;29.44;39.49;;
43168;Laerm;28773;48.804;9.024;2023-12-28T05:40:22;32.07;29.23;42.03;;
43168;Laerm;28773;48.804;9.024;2023-12-28T05:42:47;31.76;29.32;41.27;;
43168;Laerm;28773;48.804;9.024;2023-12-28T05:45:13;30.92;29.56;37.19;;
43168;Laerm;28773;48.804;9.024;2023-12-28T05:47:38;32.08;29.60;40.06;;
43168;Laerm;28773;48.804;9.024;2023-12-28T05:50:03;32.35;29.50;42.30;;
43168;Laerm;28773;48.804;9.024;2023-12-28T05:52:30;31.78;29.48;38.41;;
43168;Laerm;28773;48.804;9.024;2023-12-28T05:54:56;32.04;29.50;41.50;;
43168;Laerm;28773;48.804;9.024;2023-12-28T05:57:21;31.91;29.57;40.94;;
43168;Laerm;28773;48.804;9.024;2023-12-28T05:59:46;31.87;29.56;38.87;;
43168;Laerm;28773;48.804;9.024;2023-12-28T06:02:11;31.94;29.66;38.78;;
43168;Laerm;28773;48.804;9.024;2023-12-28T06:04:37;32.61;29.84;42.45;;
43168;Laerm;28773;48.804;9.024;2023-12-28T06:07:03;32.04;29.81;40.59;;
43168;Laerm;28773;48.804;9.024;2023-12-28T06:09:28;33.16;29.82;45.03;;
43168;Laerm;28773;48.804;9.024;2023-12-28T06:11:53;33.02;29.89;39.78;;
43168;Laerm;28773;48.804;9.024;2023-12-28T06:14:19;32.99;30.04;41.55;;
43168;Laerm;28773;48.804;9.024;2023-12-28T06:16:44;31.90;29.89;40.68;;
43168;Laerm;28773;48.804;9.024;2023-12-28T06:19:09;31.54;29.91;37.22;;
43168;Laerm;28773;48.804;9.024;2023-12-28T06:21:35;32.59;30.14;42.17;;
43168;Laerm;28773;48.804;9.024;2023-12-28T06:24:00;32.65;30.02;40.25;;
43168;Laerm;28773;48.804;9.024;2023-12-28T06:26:25;32.70;29.89;41.88;;
43168;Laerm;28773;48.804;9.024;2023-12-28T06:28:50;32.50;29.79;41.64;;
43168;Laerm;28773;48.804;9.024;2023-12-28T06:31:16;32.25;29.97;41.66;;
43168;Laerm;28773;48.804;9.024;2023-12-28T06:33:41;32.75;30.24;40.90;;
43168;Laerm;28773;48.804;9.024;2023-12-28T06:36:06;31.94;29.91;40.23;;
43168;Laerm;28773;48.804;9.024;2023-12-28T06:38:31;32.98;29.99;40.77;;
43168;Laerm;28773;48.804;9.024;2023-12-28T06:40:58;33.07;29.68;42.55;;
43168;Laerm;28773;48.804;9.024;2023-12-28T06:43:23;32.02;30.02;41.65;;
43168;Laerm;28773;48.804;9.024;2023-12-28T06:45:48;33.62;30.06;42.00;;
43168;Laerm;28773;48.804;9.024;2023-12-28T06:48:13;31.98;29.90;39.52;;
43168;Laerm;28773;48.804;9.024;2023-12-28T06:50:38;33.97;30.12;46.98;;
43168;Laerm;28773;48.804;9.024;2023-12-28T06:53:03;32.93;30.16;42.39;;
43168;Laerm;28773;48.804;9.024;2023-12-28T06:55:28;31.96;30.24;39.08;;
43168;Laerm;28773;48.804;9.024;2023-12-28T06:57:54;33.61;30.36;41.86;;
43168;Laerm;28773;48.804;9.024;2023-12-28T07:00:19;33.98;30.30;43.32;;
43168;Laerm;28773;48.804;9.024;2023-12-28T07:02:44;32.68;30.33;41.59;;
43168;Laerm;28773;48.804;9.024;2023-12-28T07:05:09;33.37;30.46;42.88;;
43168;Laerm;28773;48.804;9.024;2023-12-28T07:07:34;32.98;30.56;41.08;;
43168;Laerm;28773;48.804;9.024;2023-12-28T07:10:01;33.21;30.54;41.86;;
43168;Laerm;28773;48.804;9.024;2023-12-28T07:12:27;32.89;30.37;41.55;;
43168;Laerm;28773;48.804;9.024;2023-12-28T07:14:52;32.86;30.46;42.18;;
43168;Laerm;28773;48.804;9.024;2023-12-28T07:17:17;33.68;30.49;42.54;;
43168;Laerm;28773;48.804;9.024;2023-12-28T07:19:43;34.00;30.35;42.17;;
43168;Laerm;28773;48.804;9.024;2023-12-28T07:22:08;33.38;30.72;41.13;;
43168;Laerm;28773;48.804;9.024;2023-12-28T07:24:33;34.66;30.63;45.77;;
43168;Laerm;28773;48.804;9.024;2023-12-28T07:26:58;32.81;30.52;38.72;;
43168;Laerm;28773;48.804;9.024;2023-12-28T07:29:23;32.52;30.22;39.58;;
43168;Laerm;28773;48.804;9.024;2023-12-28T07:31:48;34.37;30.48;45.66;;
43168;Laerm;28773;48.804;9.024;2023-12-28T07:34:13;33.24;30.53;44.19;;
43168;Laerm;28773;48.804;9.024;2023-12-28T07:36:39;34.30;30.88;43.24;;
43168;Laerm;28773;48.804;9.024;2023-12-28T07:39:07;33.68;30.74;43.30;;
43168;Laerm;28773;48.804;9.024;2023-12-28T07:41:32;34.68;30.71;43.60;;
43168;Laerm;28773;48.804;9.024;2023-12-28T07:43:57;33.07;30.76;43.39;;
43168;Laerm;28773;48.804;9.024;2023-12-28T07:46:23;33.29;30.42;42.32;;
43168;Laerm;28773;48.804;9.024;2023-12-28T07:48:48;33.83;30.57;42.57;;
43168;Laerm;28773;48.804;9.024;2023-12-28T07:51:13;34.14;30.71;41.29;;
43168;Laerm;28773;48.804;9.024;2023-12-28T07:53:38;34.13;30.38;43.33;;
43168;Laerm;28773;48.804;9.024;2023-12-28T07:56:03;33.61;30.72;42.07;;
43168;Laerm;28773;48.804;9.024;2023-12-28T07:58:29;33.55;30.72;41.33;;
43168;Laerm;28773;48.804;9.024;2023-12-28T08:00:54;33.97;30.42;41.96;;
43168;Laerm;28773;48.804;9.024;2023-12-28T08:03:19;33.50;30.65;44.80;;
43168;Laerm;28773;48.804;9.024;2023-12-28T08:05:44;34.19;30.82;45.35;;
43168;Laerm;28773;48.804;9.024;2023-12-28T08:08:09;33.04;30.52;39.97;;
43168;Laerm;28773;48.804;9.024;2023-12-28T08:10:35;33.59;30.80;42.42;;
43168;Laerm;28773;48.804;9.024;2023-12-28T08:13:00;34.10;30.61;42.07;;
43168;Laerm;28773;48.804;9.024;2023-12-28T08:15:25;33.95;30.84;40.53;;
43168;Laerm;28773;48.804;9.024;2023-12-28T08:17:50;34.05;31.02;42.84;;
43168;Laerm;28773;48.804;9.024;2023-12-28T08:20:16;32.78;30.74;39.16;;
43168;Laerm;28773;48.804;9.024;2023-12-28T08:22:41;33.17;30.58;40.13;;
43168;Laerm;28773;48.804;9.024;2023-12-28T08:25:06;34.62;30.86;45.23;;
43168;Laerm;28773;48.804;9.024;2023-12-28T08:27:32;33.91;30.57;41.79;;
43168;Laerm;28773;48.804;9.024;2023-12-28T08:29:57;33.47;30.63;40.51;;
43168;Laerm;28773;48.804;9.024;2023-12-28T08:32:22;33.63;30.53;41.23;;
43168;Laerm;28773;48.804;9.024;2023-12-28T08:34:47;33.83;30.44;42.87;;
43168;Laerm;28773;48.804;9.024;2023-12-28T08:37:14;34.19;30.59;41.64;;
43168;Laerm;28773;48.804;9.024;2023-12-28T08:39:39;34.24;30.57;41.98;;
43168;Laerm;28773;48.804;9.024;2023-12-28T08:42:04;33.46;30.50;42.07;;
43168;Laerm;28773;48.804;9.024;2023-12-28T08:44:30;33.67;30.34;40.24;;
43168;Laerm;28773;48.804;9.024;2023-12-28T08:46:55;34.20;30.51;44.12;;
43168;Laerm;28773;48.804;9.024;2023-12-28T08:49:20;34.35;30.53;41.22;;
43168;Laerm;28773;48.804;9.024;2023-12-28T08:51:47;34.45;30.75;43.03;;
43168;Laerm;28773;48.804;9.024;2023-12-28T08:54:12;33.79;30.59;41.38;;
43168;Laerm;28773;48.804;9.024;2023-12-28T08:56:37;33.77;30.82;43.31;;
43168;Laerm;28773;48.804;9.024;2023-12-28T08:59:02;33.54;30.75;41.12;;
43168;Laerm;28773;48.804;9.024;2023-12-28T09:01:28;34.10;30.72;42.22;;
43168;Laerm;28773;48.804;9.024;2023-12-28T09:03:54;34.30;30.82;41.29;;
43168;Laerm;28773;48.804;9.024;2023-12-28T09:06:19;34.18;31.02;43.56;;
43168;Laerm;28773;48.804;9.024;2023-12-28T09:08:45;35.95;31.06;50.90;;
43168;Laerm;28773;48.804;9.024;2023-12-28T09:11:12;34.61;31.20;42.39;;
43168;Laerm;28773;48.804;9.024;2023-12-28T09:13:38;33.83;31.10;40.97;;
43168;Laerm;28773;48.804;9.024;2023-12-28T09:16:03;34.66;31.12;41.41;;
43168;Laerm;28773;48.804;9.024;2023-12-28T09:18:28;34.70;31.06;42.90;;
43168;Laerm;28773;48.804;9.024;2023-12-28T09:20:54;33.71;31.09;40.95;;
43168;Laerm;28773;48.804;9.024;2023-12-28T09:23:20;34.92;31.16;43.57;;
43168;Laerm;28773;48.804;9.024;2023-12-28T09:25:45;34.83;31.31;44.34;;
43168;Laerm;28773;48.804;9.024;2023-12-28T09:28:10;34.96;31.37;44.05;;
43168;Laerm;28773;48.804;9.024;2023-12-28T09:30:35;35.02;31.01;42.26;;
43168;Laerm;28773;48.804;9.024;2023-12-28T09:33:00;34.30;31.22;41.21;;
43168;Laerm;28773;48.804;9.024;2023-12-28T09:35:26;35.26;31.17;43.67;;
43168;Laerm;28773;48.804;9.024;2023-12-28T09:37:51;34.18;31.04;43.04;;
43168;Laerm;28773;48.804;9.024;2023-12-28T09:40:16;33.86;31.16;40.20;;
43168;Laerm;28773;48.804;9.024;2023-12-28T09:42:47;34.95;30.90;44.62;;
43168;Laerm;28773;48.804;9.024;2023-12-28T09:45:14;33.48;30.77;42.04;;
43168;Laerm;28773;48.804;9.024;2023-12-28T09:47:39;34.25;30.93;48.80;;
43168;Laerm;28773;48.804;9.024;2023-12-28T09:50:05;33.63;31.11;40.06;;
43168;Laerm;28773;48.804;9.024;2023-12-28T09:52:31;34.04;31.04;42.60;;
43168;Laerm;28773;48.804;9.024;2023-12-28T09:54:56;34.67;31.02;42.22;;
43168;Laerm;28773;48.804;9.024;2023-12-28T09:57:21;34.03;30.85;41.62;;
43168;Laerm;28773;48.804;9.024;2023-12-28T09:59:48;33.35;30.80;40.62;;
43168;Laerm;28773;48.804;9.024;2023-12-28T10:02:13;34.83;30.99;44.00;;
43168;Laerm;28773;48.804;9.024;2023-12-28T10:04:39;34.54;30.81;43.43;;
43168;Laerm;28773;48.804;9.024;2023-12-28T10:07:05;34.46;30.65;41.90;;
43168;Laerm;28773;48.804;9.024;2023-12-28T10:09:30;34.25;30.84;43.13;;
43168;Laerm;28773;48.804;9.024;2023-12-28T10:11:55;34.26;30.92;40.75;;
43168;Laerm;28773;48.804;9.024;2023-12-28T10:14:21;34.67;30.85;42.25;;
43168;Laerm;28773;48.804;9.024;2023-12-28T10:16:46;34.67;30.90;42.53;;
43168;Laerm;28773;48.804;9.024;2023-12-28T10:19:11;34.03;30.77;41.26;;
43168;Laerm;28773;48.804;9.024;2023-12-28T10:21:38;33.35;30.65;39.98;;
43168;Laerm;28773;48.804;9.024;2023-12-28T10:24:04;34.64;30.96;43.22;;
43168;Laerm;28773;48.804;9.024;2023-12-28T10:26:29;34.49;30.74;40.10;;
43168;Laerm;28773;48.804;9.024;2023-12-28T10:28:59;34.84;30.74;41.30;;
43168;Laerm;28773;48.804;9.024;2023-12-28T10:31:25;33.36;30.52;40.70;;
43168;Laerm;28773;48.804;9.024;2023-12-28T10:33:50;34.57;30.81;40.61;;
43168;Laerm;28773;48.804;9.024;2023-12-28T10:36:15;34.96;30.81;41.40;;
43168;Laerm;28773;48.804;9.024;2023-12-28T10:38:41;34.75;31.01;42.48;;
43168;Laerm;28773;48.804;9.024;2023-12-28T10:41:08;34.03;30.87;42.19;;
43168;Laerm;28773;48.804;9.024;2023-12-28T10:43:45;33.73;30.85;41.52;;
43168;Laerm;28773;48.804;9.024;2023-12-28T10:46:10;34.45;30.86;41.91;;
43168;Laerm;28773;48.804;9.024;2023-12-28T10:48:38;34.21;30.62;41.92;;
43168;Laerm;28773;48.804;9.024;2023-12-28T10:51:06;33.78;30.53;40.82;;
43168;Laerm;28773;48.804;9.024;2023-12-28T10:53:40;34.52;30.78;43.08;;
43168;Laerm;28773;48.804;9.024;2023-12-28T10:56:10;33.53;30.51;38.94;;
43168;Laerm;28773;48.804;9.024;2023-12-28T11:01:31;34.99;30.74;44.32;;
43168;Laerm;28773;48.804;9.024;2023-12-28T11:04:21;34.34;30.83;43.61;;
43168;Laerm;28773;48.804;9.024;2023-12-28T11:06:42;33.86;30.51;42.21;;
43168;Laerm;28773;48.804;9.024;2023-12-28T11:09:08;33.70;30.75;40.69;;
43168;Laerm;28773;48.804;9.024;2023-12-28T11:11:34;34.36;30.69;43.22;;
43168;Laerm;28773;48.804;9.024;2023-12-28T11:13:59;32.75;30.56;41.88;;
43168;Laerm;28773;48.804;9.024;2023-12-28T11:16:25;34.32;30.59;41.16;;
43168;Laerm;28773;48.804;9.024;2023-12-28T11:18:50;34.90;30.75;42.47;;
43168;Laerm;28773;48.804;9.024;2023-12-28T11:21:16;34.96;30.91;44.47;;
43168;Laerm;28773;48.804;9.024;2023-12-28T11:23:42;34.14;30.92;42.80;;
43168;Laerm;28773;48.804;9.024;2023-12-28T11:26:18;34.67;31.02;45.54;;
43168;Laerm;28773;48.804;9.024;2023-12-28T11:28:43;34.96;31.16;45.59;;
43168;Laerm;28773;48.804;9.024;2023-12-28T11:31:15;34.95;30.88;41.91;;
43168;Laerm;28773;48.804;9.024;2023-12-28T11:33:44;34.71;31.07;42.00;;
43168;Laerm;28773;48.804;9.024;2023-12-28T11:36:10;35.70;30.96;43.10;;
43168;Laerm;28773;48.804;9.024;2023-12-28T11:38:35;34.45;31.08;41.37;;
43168;Laerm;28773;48.804;9.024;2023-12-28T11:41:03;34.20;31.06;41.78;;
43168;Laerm;28773;48.804;9.024;2023-12-28T11:43:28;35.17;30.83;45.23;;
43168;Laerm;28773;48.804;9.024;2023-12-28T11:45:58;33.95;31.01;41.75;;
43168;Laerm;28773;48.804;9.024;2023-12-28T11:48:26;34.64;31.07;41.64;;
43168;Laerm;28773;48.804;9.024;2023-12-28T11:50:54;34.35;30.91;41.63;;
43168;Laerm;28773;48.804;9.024;2023-12-28T11:53:20;34.33;30.88;41.65;;
43168;Laerm;28773;48.804;9.024;2023-12-28T11:55:45;34.94;30.78;45.28;;
43168;Laerm;28773;48.804;9.024;2023-12-28T11:58:10;34.01;31.16;41.48;;
43168;Laerm;28773;48.804;9.024;2023-12-28T12:00:35;33.81;30.98;41.06;;
43168;Laerm;28773;48.804;9.024;2023-12-28T12:03:02;33.15;30.55;39.20;;
43168;Laerm;28773;48.804;9.024;2023-12-28T12:05:27;35.65;31.08;49.20;;
43168;Laerm;28773;48.804;9.024;2023-12-28T12:07:52;34.04;30.63;41.21;;
43168;Laerm;28773;48.804;9.024;2023-12-28T12:10:17;34.47;30.83;42.84;;
43168;Laerm;28773;48.804;9.024;2023-12-28T12:12:43;35.20;31.15;42.50;;
43168;Laerm;28773;48.804;9.024;2023-12-28T12:15:09;33.97;30.79;42.68;;
43168;Laerm;28773;48.804;9.024;2023-12-28T12:17:34;35.67;31.11;43.02;;
43168;Laerm;28773;48.804;9.024;2023-12-28T12:20:01;34.62;31.17;42.99;;
43168;Laerm;28773;48.804;9.024;2023-12-28T12:22:27;33.95;31.03;41.19;;
43168;Laerm;28773;48.804;9.024;2023-12-28T12:24:52;34.49;31.28;43.21;;
43168;Laerm;28773;48.804;9.024;2023-12-28T12:27:18;35.01;31.31;41.70;;
43168;Laerm;28773;48.804;9.024;2023-12-28T12:29:43;34.35;31.27;41.95;;
43168;Laerm;28773;48.804;9.024;2023-12-28T12:32:08;35.32;31.40;42.14;;
43168;Laerm;28773;48.804;9.024;2023-12-28T12:34:34;34.49;31.29;44.54;;
43168;Laerm;28773;48.804;9.024;2023-12-28T12:36:59;35.05;31.40;42.93;;
43168;Laerm;28773;48.804;9.024;2023-12-28T12:39:25;35.15;31.46;41.95;;
43168;Laerm;28773;48.804;9.024;2023-12-28T12:41:50;34.02;31.30;41.34;;
43168;Laerm;28773;48.804;9.024;2023-12-28T12:44:16;35.05;31.56;45.21;;
43168;Laerm;28773;48.804;9.024;2023-12-28T12:46:43;33.89;31.48;40.80;;
43168;Laerm;28773;48.804;9.024;2023-12-28T12:49:08;34.31;31.57;40.47;;
43168;Laerm;28773;48.804;9.024;2023-12-28T12:51:35;35.73;31.33;42.96;;
43168;Laerm;28773;48.804;9.024;2023-12-28T12:54:00;35.03;31.91;42.54;;
43168;Laerm;28773;48.804;9.024;2023-12-28T12:56:26;35.25;31.86;42.19;;
43168;Laerm;28773;48.804;9.024;2023-12-28T12:58:51;35.08;32.14;42.33;;
43168;Laerm;28773;48.804;9.024;2023-12-28T13:01:16;35.33;32.11;41.90;;
43168;Laerm;28773;48.804;9.024;2023-12-28T13:03:41;34.93;31.90;40.97;;
43168;Laerm;28773;48.804;9.024;2023-12-28T13:06:06;35.54;32.04;42.14;;
43168;Laerm;28773;48.804;9.024;2023-12-28T13:08:32;35.03;31.69;43.09;;
43168;Laerm;28773;48.804;9.024;2023-12-28T13:10:57;34.65;31.82;41.87;;
43168;Laerm;28773;48.804;9.024;2023-12-28T13:13:23;34.27;31.62;40.53;;
43168;Laerm;28773;48.804;9.024;2023-12-28T13:15:48;35.13;31.59;42.47;;
43168;Laerm;28773;48.804;9.024;2023-12-28T13:18:13;34.36;31.63;41.52;;
43168;Laerm;28773;48.804;9.024;2023-12-28T13:20:38;34.58;31.64;40.70;;
43168;Laerm;28773;48.804;9.024;2023-12-28T13:23:03;34.91;31.74;43.01;;
43168;Laerm;28773;48.804;9.024;2023-12-28T13:25:29;35.30;31.67;42.53;;
43168;Laerm;28773;48.804;9.024;2023-12-28T13:27:54;34.69;31.58;41.24;;
43168;Laerm;28773;48.804;9.024;2023-12-28T13:30:19;34.72;31.67;45.29;;
43168;Laerm;28773;48.804;9.024;2023-12-28T13:32:46;34.32;31.71;40.97;;
43168;Laerm;28773;48.804;9.024;2023-12-28T13:35:11;34.61;31.62;41.05;;
43168;Laerm;28773;48.804;9.024;2023-12-28T13:37:36;35.14;31.33;43.93;;